sensor_id;sensor_type;location;lat;lon;timestamp;pressure;altitude;pressure_sealevel;temperature;humidity
57000;BME280;42891;50.006;21.964;2024-03-02T00:00:40;51090.84;;;-146.02;75.64
57000;BME280;42891;50.006;21.964;2024-03-02T00:04:44;51126.94;;;-146.02;76.24
57000;BME280;42891;50.006;21.964;2024-03-02T00:08:44;51134.94;;;-146.02;76.56
57000;BME280;42891;50.006;21.964;2024-03-02T00:12:46;51110.91;;;-146.02;76.61
57000;BME280;42891;50.006;21.964;2024-03-02T00:16:47;51116.91;;;-146.02;76.35
57000;BME280;42891;50.006;21.964;2024-03-02T00:20:48;51104.88;;;-146.02;76.20
57000;BME280;42891;50.006;21.964;2024-03-02T00:24:48;51138.94;;;-146.02;76.32
57000;BME280;42891;50.006;21.964;2024-03-02T00:28:49;51122.91;;;-146.02;76.18
57000;BME280;42891;50.006;21.964;2024-03-02T00:32:50;51128.94;;;-146.02;76.64
57000;BME280;42891;50.006;21.964;2024-03-02T00:36:53;51152.97;;;-146.02;76.06
57000;BME280;42891;50.006;21.964;2024-03-02T00:40:53;51108.88;;;-146.02;76.07
57000;BME280;42891;50.006;21.964;2024-03-02T00:44:54;51136.94;;;-146.02;75.96
57000;BME280;42891;50.006;21.964;2024-03-02T00:48:56;51100.88;;;-146.02;75.69
57000;BME280;42891;50.006;21.964;2024-03-02T00:52:57;51110.91;;;-146.02;75.52
57000;BME280;42891;50.006;21.964;2024-03-02T00:56:57;51124.91;;;-146.02;76.24
57000;BME280;42891;50.006;21.964;2024-03-02T01:00:57;51102.88;;;-146.02;76.23
57000;BME280;42891;50.006;21.964;2024-03-02T01:04:57;51132.94;;;-146.02;76.44
57000;BME280;42891;50.006;21.964;2024-03-02T01:08:58;51114.91;;;-146.02;76.84
57000;BME280;42891;50.006;21.964;2024-03-02T01:12:58;51106.88;;;-146.02;77.85
57000;BME280;42891;50.006;21.964;2024-03-02T01:16:58;51118.91;;;-146.02;78.20
57000;BME280;42891;50.006;21.964;2024-03-02T01:20:59;51096.88;;;-146.02;78.30
57000;BME280;42891;50.006;21.964;2024-03-02T01:24:59;51130.94;;;-146.02;78.40
57000;BME280;42891;50.006;21.964;2024-03-02T01:28:59;51106.88;;;-146.02;78.94
57000;BME280;42891;50.006;21.964;2024-03-02T01:33:00;51114.91;;;-146.02;78.54
57000;BME280;42891;50.006;21.964;2024-03-02T01:37:00;51106.88;;;-146.02;78.70
57000;BME280;42891;50.006;21.964;2024-03-02T01:41:00;51084.84;;;-146.02;78.93
57000;BME280;42891;50.006;21.964;2024-03-02T01:45:01;51114.91;;;-146.02;79.44
57000;BME280;42891;50.006;21.964;2024-03-02T01:49:01;51098.88;;;-146.02;79.71
57000;BME280;42891;50.006;21.964;2024-03-02T01:53:02;51108.88;;;-146.02;79.77
57000;BME280;42891;50.006;21.964;2024-03-02T01:57:03;51102.88;;;-146.02;80.21
57000;BME280;42891;50.006;21.964;2024-03-02T02:01:03;51124.91;;;-146.02;79.79
57000;BME280;42891;50.006;21.964;2024-03-02T02:05:04;51144.97;;;-146.02;79.68
57000;BME280;42891;50.006;21.964;2024-03-02T02:09:05;51134.94;;;-146.02;79.44
57000;BME280;42891;50.006;21.964;2024-03-02T02:13:08;51130.94;;;-146.02;79.39
57000;BME280;42891;50.006;21.964;2024-03-02T02:17:08;51110.91;;;-146.02;79.53
57000;BME280;42891;50.006;21.964;2024-03-02T02:21:09;51124.91;;;-146.02;79.40
57000;BME280;42891;50.006;21.964;2024-03-02T02:25:09;51106.88;;;-146.02;79.41
57000;BME280;42891;50.006;21.964;2024-03-02T02:29:09;51114.91;;;-146.02;79.44
57000;BME280;42891;50.006;21.964;2024-03-02T02:33:09;51126.94;;;-146.02;78.88
57000;BME280;42891;50.006;21.964;2024-03-02T02:37:10;51158.97;;;-146.02;78.65
57000;BME280;42891;50.006;21.964;2024-03-02T02:41:10;51110.91;;;-146.02;78.63
57000;BME280;42891;50.006;21.964;2024-03-02T02:45:10;51108.88;;;-146.02;78.70
57000;BME280;42891;50.006;21.964;2024-03-02T02:49:13;51104.88;;;-146.02;78.80
57000;BME280;42891;50.006;21.964;2024-03-02T02:53:13;51134.94;;;-146.02;78.66
57000;BME280;42891;50.006;21.964;2024-03-02T02:57:13;51104.88;;;-146.02;78.79
57000;BME280;42891;50.006;21.964;2024-03-02T03:01:15;51140.94;;;-146.02;79.50
57000;BME280;42891;50.006;21.964;2024-03-02T03:05:18;51112.91;;;-146.02;80.09
57000;BME280;42891;50.006;21.964;2024-03-02T03:09:18;51128.94;;;-146.02;80.09
57000;BME280;42891;50.006;21.964;2024-03-02T03:13:19;51124.91;;;-146.02;80.45
57000;BME280;42891;50.006;21.964;2024-03-02T03:17:21;51132.94;;;-146.02;79.63
57000;BME280;42891;50.006;21.964;2024-03-02T03:21:21;51132.94;;;-146.02;79.88
57000;BME280;42891;50.006;21.964;2024-03-02T03:25:22;51136.94;;;-146.02;80.30
57000;BME280;42891;50.006;21.964;2024-03-02T03:29:22;51156.97;;;-146.02;79.78
57000;BME280;42891;50.006;21.964;2024-03-02T03:33:22;51122.91;;;-146.02;79.20
57000;BME280;42891;50.006;21.964;2024-03-02T03:37:23;51120.91;;;-146.02;79.12
57000;BME280;42891;50.006;21.964;2024-03-02T03:41:24;51126.94;;;-146.02;79.68
57000;BME280;42891;50.006;21.964;2024-03-02T03:45:24;51134.94;;;-146.02;79.59
57000;BME280;42891;50.006;21.964;2024-03-02T03:49:26;51138.94;;;-146.02;79.66
57000;BME280;42891;50.006;21.964;2024-03-02T03:53:26;51140.94;;;-146.02;79.31
57000;BME280;42891;50.006;21.964;2024-03-02T03:57:27;51108.88;;;-146.02;79.60
57000;BME280;42891;50.006;21.964;2024-03-02T04:01:27;51104.88;;;-146.02;79.96
57000;BME280;42891;50.006;21.964;2024-03-02T04:05:27;51132.94;;;-146.02;80.15
57000;BME280;42891;50.006;21.964;2024-03-02T04:09:28;51144.97;;;-146.02;80.31
57000;BME280;42891;50.006;21.964;2024-03-02T04:13:28;51146.97;;;-146.02;80.54
57000;BME280;42891;50.006;21.964;2024-03-02T04:17:28;51126.94;;;-146.02;80.23
57000;BME280;42891;50.006;21.964;2024-03-02T04:21:29;51100.88;;;-146.02;79.79
57000;BME280;42891;50.006;21.964;2024-03-02T04:25:29;51128.94;;;-146.02;79.98
57000;BME280;42891;50.006;21.964;2024-03-02T04:29:29;51124.91;;;-146.02;80.23
57000;BME280;42891;50.006;21.964;2024-03-02T04:33:30;51106.88;;;-146.02;80.06
57000;BME280;42891;50.006;21.964;2024-03-02T04:37:31;51158.97;;;-146.02;80.21
57000;BME280;42891;50.006;21.964;2024-03-02T04:41:32;51100.88;;;-146.02;79.85
57000;BME280;42891;50.006;21.964;2024-03-02T04:45:32;51118.91;;;-146.02;80.10
57000;BME280;42891;50.006;21.964;2024-03-02T04:49:32;51102.88;;;-146.02;80.23
57000;BME280;42891;50.006;21.964;2024-03-02T04:53:32;51134.94;;;-146.02;80.48
57000;BME280;42891;50.006;21.964;2024-03-02T04:57:33;51122.91;;;-146.02;80.56
57000;BME280;42891;50.006;21.964;2024-03-02T05:01:33;51116.91;;;-146.02;80.55
57000;BME280;42891;50.006;21.964;2024-03-02T05:05:33;51090.84;;;-146.02;80.61
57000;BME280;42891;50.006;21.964;2024-03-02T05:09:35;51156.97;;;-146.02;80.44
57000;BME280;42891;50.006;21.964;2024-03-02T05:13:36;51144.97;;;-146.02;80.22
57000;BME280;42891;50.006;21.964;2024-03-02T05:17:38;51158.97;;;-146.02;80.41
57000;BME280;42891;50.006;21.964;2024-03-02T05:21:38;51124.91;;;-146.02;80.36
57000;BME280;42891;50.006;21.964;2024-03-02T05:25:39;51128.94;;;-146.02;80.15
57000;BME280;42891;50.006;21.964;2024-03-02T05:29:39;51102.88;;;-146.02;79.96
57000;BME280;42891;50.006;21.964;2024-03-02T05:33:39;51112.91;;;-146.02;80.12
57000;BME280;42891;50.006;21.964;2024-03-02T05:37:40;51136.94;;;-146.02;80.20
57000;BME280;42891;50.006;21.964;2024-03-02T05:41:40;51140.94;;;-146.02;80.41
57000;BME280;42891;50.006;21.964;2024-03-02T05:45:41;51171.00;;;-146.02;80.71
57000;BME280;42891;50.006;21.964;2024-03-02T05:49:41;51140.94;;;-146.02;80.93
57000;BME280;42891;50.006;21.964;2024-03-02T05:53:43;51179.03;;;-146.02;81.15
57000;BME280;42891;50.006;21.964;2024-03-02T05:57:43;51122.91;;;-146.02;81.41
57000;BME280;42891;50.006;21.964;2024-03-02T06:01:47;51152.97;;;-146.02;81.00
57000;BME280;42891;50.006;21.964;2024-03-02T06:05:48;51134.94;;;-146.02;80.63
57000;BME280;42891;50.006;21.964;2024-03-02T06:09:49;51140.94;;;-146.02;81.12
57000;BME280;42891;50.006;21.964;2024-03-02T06:13:51;51122.91;;;-146.02;80.85
57000;BME280;42891;50.006;21.964;2024-03-02T06:17:52;51124.91;;;-146.02;80.67
57000;BME280;42891;50.006;21.964;2024-03-02T06:21:53;51110.91;;;-146.02;80.82
57000;BME280;42891;50.006;21.964;2024-03-02T06:25:53;51114.91;;;-146.02;80.74
57000;BME280;42891;50.006;21.964;2024-03-02T06:29:53;51128.94;;;-146.02;80.32
57000;BME280;42891;50.006;21.964;2024-03-02T06:33:54;51116.91;;;-146.02;80.73
57000;BME280;42891;50.006;21.964;2024-03-02T06:37:55;51102.88;;;-146.02;80.92
57000;BME280;42891;50.006;21.964;2024-03-02T06:41:55;51158.97;;;-146.02;80.71
57000;BME280;42891;50.006;21.964;2024-03-02T06:45:55;51150.97;;;-146.02;80.70
57000;BME280;42891;50.006;21.964;2024-03-02T06:49:56;51114.91;;;-146.02;80.75
57000;BME280;42891;50.006;21.964;2024-03-02T06:53:57;51126.94;;;-146.02;80.55
57000;BME280;42891;50.006;21.964;2024-03-02T06:57:57;51142.97;;;-146.02;81.11
57000;BME280;42891;50.006;21.964;2024-03-02T07:01:58;51118.91;;;-146.02;81.23
57000;BME280;42891;50.006;21.964;2024-03-02T07:05:58;51118.91;;;-146.02;81.00
57000;BME280;42891;50.006;21.964;2024-03-02T07:09:58;51120.91;;;-146.02;81.31
57000;BME280;42891;50.006;21.964;2024-03-02T07:13:59;51138.94;;;-146.02;81.42
57000;BME280;42891;50.006;21.964;2024-03-02T07:17:59;51156.97;;;-146.02;81.23
57000;BME280;42891;50.006;21.964;2024-03-02T07:22:00;51120.91;;;-146.02;81.32
57000;BME280;42891;50.006;21.964;2024-03-02T07:26:00;51140.94;;;-146.02;81.27
57000;BME280;42891;50.006;21.964;2024-03-02T07:30:02;51140.94;;;-146.02;81.48
57000;BME280;42891;50.006;21.964;2024-03-02T07:34:03;51104.88;;;-146.02;81.23
57000;BME280;42891;50.006;21.964;2024-03-02T07:38:03;51150.97;;;-146.02;81.06
57000;BME280;42891;50.006;21.964;2024-03-02T07:42:04;51132.94;;;-146.02;81.12
57000;BME280;42891;50.006;21.964;2024-03-02T07:46:06;51161.00;;;-146.02;80.97
57000;BME280;42891;50.006;21.964;2024-03-02T07:50:07;51114.91;;;-146.02;80.77
57000;BME280;42891;50.006;21.964;2024-03-02T07:54:07;51163.00;;;-146.02;80.86
57000;BME280;42891;50.006;21.964;2024-03-02T07:58:08;51138.94;;;-146.02;81.17
57000;BME280;42891;50.006;21.964;2024-03-02T08:02:08;51142.97;;;-146.02;81.09
57000;BME280;42891;50.006;21.964;2024-03-02T08:06:09;51136.94;;;-146.02;81.03
57000;BME280;42891;50.006;21.964;2024-03-02T08:10:09;51142.97;;;-146.02;81.14
57000;BME280;42891;50.006;21.964;2024-03-02T08:14:10;51136.94;;;-146.02;81.70
57000;BME280;42891;50.006;21.964;2024-03-02T08:18:11;51114.91;;;-146.02;81.61
57000;BME280;42891;50.006;21.964;2024-03-02T08:22:11;51128.94;;;-146.02;81.51
57000;BME280;42891;50.006;21.964;2024-03-02T08:26:12;51136.94;;;-146.02;81.14
57000;BME280;42891;50.006;21.964;2024-03-02T08:30:12;51134.94;;;-146.02;80.60
57000;BME280;42891;50.006;21.964;2024-03-02T08:34:13;51132.94;;;-146.02;80.15
57000;BME280;42891;50.006;21.964;2024-03-02T08:38:13;51140.94;;;-146.02;80.78
57000;BME280;42891;50.006;21.964;2024-03-02T08:42:13;51124.91;;;-146.02;80.23
57000;BME280;42891;50.006;21.964;2024-03-02T08:46:14;51118.91;;;-146.02;80.46
57000;BME280;42891;50.006;21.964;2024-03-02T08:50:14;51116.91;;;-146.02;80.77
57000;BME280;42891;50.006;21.964;2024-03-02T08:54:15;51108.88;;;-146.02;80.43
57000;BME280;42891;50.006;21.964;2024-03-02T08:58:15;51096.88;;;-146.02;79.79
57000;BME280;42891;50.006;21.964;2024-03-02T09:02:15;51108.88;;;-146.02;79.85
57000;BME280;42891;50.006;21.964;2024-03-02T09:06:15;51136.94;;;-146.02;79.76
57000;BME280;42891;50.006;21.964;2024-03-02T09:10:20;51132.94;;;-146.02;78.92
57000;BME280;42891;50.006;21.964;2024-03-02T09:14:21;51152.97;;;-146.02;78.78
57000;BME280;42891;50.006;21.964;2024-03-02T09:18:22;51163.00;;;-146.02;79.25
57000;BME280;42891;50.006;21.964;2024-03-02T09:22:22;51108.88;;;-146.02;80.51
57000;BME280;42891;50.006;21.964;2024-03-02T09:26:23;51104.88;;;-146.02;81.44
57000;BME280;42891;50.006;21.964;2024-03-02T09:30:24;51116.91;;;-146.02;81.23
57000;BME280;42891;50.006;21.964;2024-03-02T09:34:25;51134.94;;;-146.02;81.94
57000;BME280;42891;50.006;21.964;2024-03-02T09:38:25;51124.91;;;-146.02;81.09
57000;BME280;42891;50.006;21.964;2024-03-02T09:42:25;51152.97;;;-146.02;82.25
57000;BME280;42891;50.006;21.964;2024-03-02T09:46:26;51130.94;;;-146.02;82.66
57000;BME280;42891;50.006;21.964;2024-03-02T09:50:26;51156.97;;;-146.02;82.29
57000;BME280;42891;50.006;21.964;2024-03-02T09:54:26;51108.88;;;-146.02;82.30
57000;BME280;42891;50.006;21.964;2024-03-02T09:58:27;51116.91;;;-146.02;81.96
57000;BME280;42891;50.006;21.964;2024-03-02T10:02:27;51152.97;;;-146.02;81.58
57000;BME280;42891;50.006;21.964;2024-03-02T10:06:28;51154.97;;;-146.02;82.41
57000;BME280;42891;50.006;21.964;2024-03-02T10:10:35;51150.97;;;-146.02;82.62
57000;BME280;42891;50.006;21.964;2024-03-02T10:14:40;51124.91;;;-146.02;83.36
57000;BME280;42891;50.006;21.964;2024-03-02T10:18:40;51136.94;;;-146.02;83.92
57000;BME280;42891;50.006;21.964;2024-03-02T10:22:40;51120.91;;;-146.02;83.53
57000;BME280;42891;50.006;21.964;2024-03-02T10:26:41;51120.91;;;-146.02;83.65
57000;BME280;42891;50.006;21.964;2024-03-02T10:30:47;51132.94;;;-146.02;84.79
57000;BME280;42891;50.006;21.964;2024-03-02T10:34:47;51116.91;;;-146.02;84.36
57000;BME280;42891;50.006;21.964;2024-03-02T10:38:49;51154.97;;;-146.02;85.41
57000;BME280;42891;50.006;21.964;2024-03-02T10:42:50;51140.94;;;-146.02;86.22
57000;BME280;42891;50.006;21.964;2024-03-02T10:46:52;51130.94;;;-146.02;85.40
57000;BME280;42891;50.006;21.964;2024-03-02T10:50:54;51116.91;;;-146.02;84.90
57000;BME280;42891;50.006;21.964;2024-03-02T10:54:54;51102.88;;;-146.02;84.66
57000;BME280;42891;50.006;21.964;2024-03-02T10:59:49;51165.00;;;-146.02;85.00
57000;BME280;42891;50.006;21.964;2024-03-02T11:03:22;51116.91;;;-146.02;84.46
57000;BME280;42891;50.006;21.964;2024-03-02T11:07:24;51163.00;;;-146.02;84.95
57000;BME280;42891;50.006;21.964;2024-03-02T11:11:30;51122.91;;;-146.02;84.66
57000;BME280;42891;50.006;21.964;2024-03-02T11:15:35;51140.94;;;-146.02;84.25
57000;BME280;42891;50.006;21.964;2024-03-02T11:19:38;51122.91;;;-146.02;83.12
57000;BME280;42891;50.006;21.964;2024-03-02T11:23:39;51144.97;;;-146.02;84.63
57000;BME280;42891;50.006;21.964;2024-03-02T11:31:58;51132.94;;;-146.02;85.31
57000;BME280;42891;50.006;21.964;2024-03-02T11:36:01;51120.91;;;-146.02;85.74
57000;BME280;42891;50.006;21.964;2024-03-02T11:40:02;51140.94;;;-146.02;85.94
57000;BME280;42891;50.006;21.964;2024-03-02T11:44:04;51106.88;;;-146.02;85.18
57000;BME280;42891;50.006;21.964;2024-03-02T11:48:05;51106.88;;;-146.02;86.03
57000;BME280;42891;50.006;21.964;2024-03-02T11:52:07;51106.88;;;-146.02;85.63
57000;BME280;42891;50.006;21.964;2024-03-02T11:56:09;51144.97;;;-146.02;84.98
57000;BME280;42891;50.006;21.964;2024-03-02T12:00:17;51118.91;;;-146.02;84.96
57000;BME280;42891;50.006;21.964;2024-03-02T12:04:18;51120.91;;;-146.02;84.41
57000;BME280;42891;50.006;21.964;2024-03-02T12:08:18;51122.91;;;-146.02;84.58
57000;BME280;42891;50.006;21.964;2024-03-02T12:12:20;51116.91;;;-146.02;84.14
57000;BME280;42891;50.006;21.964;2024-03-02T12:16:25;51148.97;;;-146.02;83.88
57000;BME280;42891;50.006;21.964;2024-03-02T12:20:27;51150.97;;;-146.02;83.79
57000;BME280;42891;50.006;21.964;2024-03-02T12:24:29;51110.91;;;-146.02;82.68
57000;BME280;42891;50.006;21.964;2024-03-02T12:28:30;51126.94;;;-146.02;82.93
57000;BME280;42891;50.006;21.964;2024-03-02T12:32:30;51154.97;;;-146.02;82.71
57000;BME280;42891;50.006;21.964;2024-03-02T12:36:37;51104.88;;;-146.02;82.15
57000;BME280;42891;50.006;21.964;2024-03-02T12:40:38;51092.84;;;-146.02;82.85
57000;BME280;42891;50.006;21.964;2024-03-02T12:44:39;51124.91;;;-146.02;82.66
57000;BME280;42891;50.006;21.964;2024-03-02T12:48:40;51161.00;;;-146.02;81.50
57000;BME280;42891;50.006;21.964;2024-03-02T12:52:43;51098.88;;;-146.02;82.17
57000;BME280;42891;50.006;21.964;2024-03-02T12:56:43;51096.88;;;-146.02;81.36
57000;BME280;42891;50.006;21.964;2024-03-02T13:00:47;51134.94;;;-146.02;81.54
57000;BME280;42891;50.006;21.964;2024-03-02T13:04:53;51124.91;;;-146.02;81.71
57000;BME280;42891;50.006;21.964;2024-03-02T13:08:56;51098.88;;;-146.02;80.76
57000;BME280;42891;50.006;21.964;2024-03-02T13:12:56;51163.00;;;-146.02;81.09
57000;BME280;42891;50.006;21.964;2024-03-02T13:16:57;51144.97;;;-146.02;80.19
57000;BME280;42891;50.006;21.964;2024-03-02T13:20:58;51122.91;;;-146.02;80.42
57000;BME280;42891;50.006;21.964;2024-03-02T13:24:58;51122.91;;;-146.02;79.59
57000;BME280;42891;50.006;21.964;2024-03-02T13:29:00;51098.88;;;-146.02;79.19
57000;BME280;42891;50.006;21.964;2024-03-02T13:33:00;51108.88;;;-146.02;79.20
57000;BME280;42891;50.006;21.964;2024-03-02T13:37:00;51144.97;;;-146.02;79.28
57000;BME280;42891;50.006;21.964;2024-03-02T13:41:01;51112.91;;;-146.02;79.35
57000;BME280;42891;50.006;21.964;2024-03-02T13:45:02;51140.94;;;-146.02;79.33
57000;BME280;42891;50.006;21.964;2024-03-02T13:49:04;51084.84;;;-146.02;79.50
57000;BME280;42891;50.006;21.964;2024-03-02T13:53:04;51104.88;;;-146.02;79.36
57000;BME280;42891;50.006;21.964;2024-03-02T13:57:07;51104.88;;;-146.02;79.39
57000;BME280;42891;50.006;21.964;2024-03-02T14:01:08;51118.91;;;-146.02;79.30
57000;BME280;42891;50.006;21.964;2024-03-02T14:05:08;51140.94;;;-146.02;79.30
57000;BME280;42891;50.006;21.964;2024-03-02T14:09:11;51136.94;;;-146.02;79.86
57000;BME280;42891;50.006;21.964;2024-03-02T14:13:11;51124.91;;;-146.02;78.86
57000;BME280;42891;50.006;21.964;2024-03-02T14:17:11;51116.91;;;-146.02;79.11
57000;BME280;42891;50.006;21.964;2024-03-02T14:21:14;51114.91;;;-146.02;78.99
57000;BME280;42891;50.006;21.964;2024-03-02T14:25:15;51112.91;;;-146.02;78.99
57000;BME280;42891;50.006;21.964;2024-03-02T14:29:16;51140.94;;;-146.02;79.30
57000;BME280;42891;50.006;21.964;2024-03-02T14:33:17;51120.91;;;-146.02;78.55
57000;BME280;42891;50.006;21.964;2024-03-02T14:37:18;51088.84;;;-146.02;79.21
57000;BME280;42891;50.006;21.964;2024-03-02T14:41:18;51108.88;;;-146.02;79.09
57000;BME280;42891;50.006;21.964;2024-03-02T14:45:18;51118.91;;;-146.02;78.87
57000;BME280;42891;50.006;21.964;2024-03-02T14:49:18;51132.94;;;-146.02;78.94
57000;BME280;42891;50.006;21.964;2024-03-02T14:53:19;51114.91;;;-146.02;78.60
57000;BME280;42891;50.006;21.964;2024-03-02T14:57:19;51092.84;;;-146.02;78.09
57000;BME280;42891;50.006;21.964;2024-03-02T15:01:19;51110.91;;;-146.02;78.27
57000;BME280;42891;50.006;21.964;2024-03-02T15:05:22;51134.94;;;-146.02;78.04
57000;BME280;42891;50.006;21.964;2024-03-02T15:09:26;51136.94;;;-146.02;76.94
57000;BME280;42891;50.006;21.964;2024-03-02T15:13:28;51134.94;;;-146.02;76.89
57000;BME280;42891;50.006;21.964;2024-03-02T15:17:28;51158.97;;;-146.02;77.07
57000;BME280;42891;50.006;21.964;2024-03-02T15:21:28;51084.84;;;-146.02;76.54
57000;BME280;42891;50.006;21.964;2024-03-02T15:25:28;51136.94;;;-146.02;76.56
57000;BME280;42891;50.006;21.964;2024-03-02T15:29:29;51126.94;;;-146.02;76.31
57000;BME280;42891;50.006;21.964;2024-03-02T15:33:31;51128.94;;;-146.02;76.07
57000;BME280;42891;50.006;21.964;2024-03-02T15:37:31;51128.94;;;-146.02;76.40
57000;BME280;42891;50.006;21.964;2024-03-02T15:41:31;51144.97;;;-146.02;77.05
57000;BME280;42891;50.006;21.964;2024-03-02T15:45:32;51102.88;;;-146.02;76.64
57000;BME280;42891;50.006;21.964;2024-03-02T15:49:34;51110.91;;;-146.02;76.19
57000;BME280;42891;50.006;21.964;2024-03-02T15:53:35;51124.91;;;-146.02;75.78
57000;BME280;42891;50.006;21.964;2024-03-02T15:57:36;51114.91;;;-146.02;75.79
57000;BME280;42891;50.006;21.964;2024-03-02T16:01:36;51156.97;;;-146.02;75.72
57000;BME280;42891;50.006;21.964;2024-03-02T16:05:36;51146.97;;;-146.02;75.51
57000;BME280;42891;50.006;21.964;2024-03-02T16:09:36;51120.91;;;-146.02;75.56
57000;BME280;42891;50.006;21.964;2024-03-02T16:13:37;51126.94;;;-146.02;75.37
57000;BME280;42891;50.006;21.964;2024-03-02T16:17:38;51140.94;;;-146.02;75.37
57000;BME280;42891;50.006;21.964;2024-03-02T16:21:38;51118.91;;;-146.02;75.68
57000;BME280;42891;50.006;21.964;2024-03-02T16:25:38;51158.97;;;-146.02;75.69
57000;BME280;42891;50.006;21.964;2024-03-02T16:29:41;51140.94;;;-146.02;76.13
57000;BME280;42891;50.006;21.964;2024-03-02T16:33:41;51104.88;;;-146.02;76.32
57000;BME280;42891;50.006;21.964;2024-03-02T16:37:42;51165.00;;;-146.02;76.39
57000;BME280;42891;50.006;21.964;2024-03-02T16:41:42;51116.91;;;-146.02;76.74
57000;BME280;42891;50.006;21.964;2024-03-02T16:45:46;51148.97;;;-146.02;76.57
57000;BME280;42891;50.006;21.964;2024-03-02T16:49:46;51120.91;;;-146.02;76.52
57000;BME280;42891;50.006;21.964;2024-03-02T16:53:47;51138.94;;;-146.02;76.46
57000;BME280;42891;50.006;21.964;2024-03-02T16:57:47;51136.94;;;-146.02;76.64
57000;BME280;42891;50.006;21.964;2024-03-02T17:01:48;51114.91;;;-146.02;76.56
57000;BME280;42891;50.006;21.964;2024-03-02T17:05:48;51142.97;;;-146.02;76.67
57000;BME280;42891;50.006;21.964;2024-03-02T17:09:48;51177.03;;;-146.02;76.67
57000;BME280;42891;50.006;21.964;2024-03-02T17:13:49;51146.97;;;-146.02;77.27
57000;BME280;42891;50.006;21.964;2024-03-02T17:17:52;51144.97;;;-146.02;76.77
57000;BME280;42891;50.006;21.964;2024-03-02T17:21:52;51124.91;;;-146.02;77.24
57000;BME280;42891;50.006;21.964;2024-03-02T17:25:53;51140.94;;;-146.02;76.64
57000;BME280;42891;50.006;21.964;2024-03-02T17:29:54;51173.00;;;-146.02;76.80
57000;BME280;42891;50.006;21.964;2024-03-02T17:33:54;51122.91;;;-146.02;77.05
57000;BME280;42891;50.006;21.964;2024-03-02T17:37:54;51144.97;;;-146.02;77.22
57000;BME280;42891;50.006;21.964;2024-03-02T17:41:54;51082.84;;;-146.02;76.67
57000;BME280;42891;50.006;21.964;2024-03-02T17:45:55;51118.91;;;-146.02;77.00
57000;BME280;42891;50.006;21.964;2024-03-02T17:49:55;51128.94;;;-146.02;76.73
57000;BME280;42891;50.006;21.964;2024-03-02T17:53:55;51114.91;;;-146.02;77.04
57000;BME280;42891;50.006;21.964;2024-03-02T17:57:55;51122.91;;;-146.02;76.75
57000;BME280;42891;50.006;21.964;2024-03-02T18:01:56;51142.97;;;-146.02;76.75
57000;BME280;42891;50.006;21.964;2024-03-02T18:05:56;51132.94;;;-146.02;76.18
57000;BME280;42891;50.006;21.964;2024-03-02T18:09:56;51108.88;;;-146.02;76.41
57000;BME280;42891;50.006;21.964;2024-03-02T18:14:00;51124.91;;;-146.02;75.86
57000;BME280;42891;50.006;21.964;2024-03-02T18:18:00;51142.97;;;-146.02;75.49
57000;BME280;42891;50.006;21.964;2024-03-02T18:22:01;51144.97;;;-146.02;75.47
57000;BME280;42891;50.006;21.964;2024-03-02T18:26:02;51118.91;;;-146.02;75.62
57000;BME280;42891;50.006;21.964;2024-03-02T18:30:03;51114.91;;;-146.02;75.10
57000;BME280;42891;50.006;21.964;2024-03-02T18:34:05;51128.94;;;-146.02;75.10
57000;BME280;42891;50.006;21.964;2024-03-02T18:38:06;51136.94;;;-146.02;75.24
57000;BME280;42891;50.006;21.964;2024-03-02T18:42:06;51114.91;;;-146.02;75.12
57000;BME280;42891;50.006;21.964;2024-03-02T18:46:07;51142.97;;;-146.02;74.58
57000;BME280;42891;50.006;21.964;2024-03-02T18:50:10;51144.97;;;-146.02;74.30
57000;BME280;42891;50.006;21.964;2024-03-02T18:54:10;51144.97;;;-146.02;73.96
57000;BME280;42891;50.006;21.964;2024-03-02T18:58:11;51128.94;;;-146.02;73.90
57000;BME280;42891;50.006;21.964;2024-03-02T19:02:12;51130.94;;;-146.02;73.93
57000;BME280;42891;50.006;21.964;2024-03-02T19:06:16;51140.94;;;-146.02;73.54
57000;BME280;42891;50.006;21.964;2024-03-02T19:10:16;51126.94;;;-146.02;74.21
57000;BME280;42891;50.006;21.964;2024-03-02T19:14:18;51136.94;;;-146.02;74.14
57000;BME280;42891;50.006;21.964;2024-03-02T19:18:18;51106.88;;;-146.02;74.21
57000;BME280;42891;50.006;21.964;2024-03-02T19:22:18;51161.00;;;-146.02;74.10
57000;BME280;42891;50.006;21.964;2024-03-02T19:26:19;51161.00;;;-146.02;74.09
57000;BME280;42891;50.006;21.964;2024-03-02T19:30:20;51100.88;;;-146.02;73.78
57000;BME280;42891;50.006;21.964;2024-03-02T19:34:20;51128.94;;;-146.02;74.64
57000;BME280;42891;50.006;21.964;2024-03-02T19:38:23;51136.94;;;-146.02;74.41
57000;BME280;42891;50.006;21.964;2024-03-02T19:42:25;51122.91;;;-146.02;74.52
57000;BME280;42891;50.006;21.964;2024-03-02T19:46:25;51126.94;;;-146.02;74.78
57000;BME280;42891;50.006;21.964;2024-03-02T19:50:25;51146.97;;;-146.02;74.54
57000;BME280;42891;50.006;21.964;2024-03-02T19:54:26;51122.91;;;-146.02;74.55
57000;BME280;42891;50.006;21.964;2024-03-02T19:58:26;51126.94;;;-146.02;74.01
57000;BME280;42891;50.006;21.964;2024-03-02T20:02:26;51108.88;;;-146.02;73.67
57000;BME280;42891;50.006;21.964;2024-03-02T20:06:27;51148.97;;;-146.02;73.67
57000;BME280;42891;50.006;21.964;2024-03-02T20:10:27;51144.97;;;-146.02;74.28
57000;BME280;42891;50.006;21.964;2024-03-02T20:14:28;51158.97;;;-146.02;74.28
57000;BME280;42891;50.006;21.964;2024-03-02T20:18:28;51136.94;;;-146.02;73.95
57000;BME280;42891;50.006;21.964;2024-03-02T20:22:29;51122.91;;;-146.02;73.94
57000;BME280;42891;50.006;21.964;2024-03-02T20:26:29;51104.88;;;-146.02;73.72
57000;BME280;42891;50.006;21.964;2024-03-02T20:30:29;51124.91;;;-146.02;73.93